Terminal Aerodrome Forecast
Issued by NWS

Home | Current Version | Previous Version | Text Only | Print | Product List | Glossary On
Versions: 1 2 3 4 5 6 7 8 9 10 11 12 13 14 15 16 17 18
000
FTUS46 KMTR 180500
TAFOAK
TAF
KOAK 180534Z 1806/1912 13010KT P6SM -SHRA FEW018 BKN030 OVC040
     FM180800 13006KT P6SM VCSH BKN040 OVC060
     FM182000 16005KT P6SM BKN050 OVC100 PROB30 1906/1912 P6SM -RA
      OVC050=

USA.gov is the U.S. government's official web portal to all federal, state and local government web resources and services.